sensor_id;sensor_type;location;lat;lon;timestamp;P1;durP1;ratioP1;P2;durP2;ratioP2
46507;SDS011;32223;53.654;10.014;2023-04-01T00:01:24;16.08;;;6.95;;
46507;SDS011;32223;53.654;10.014;2023-04-01T00:03:51;9.82;;;5.85;;
46507;SDS011;32223;53.654;10.014;2023-04-01T00:06:17;15.30;;;6.15;;
46507;SDS011;32223;53.654;10.014;2023-04-01T00:08:43;8.95;;;5.50;;
46507;SDS011;32223;53.654;10.014;2023-04-01T00:11:09;9.95;;;5.97;;
46507;SDS011;32223;53.654;10.014;2023-04-01T00:13:35;11.57;;;5.85;;
46507;SDS011;32223;53.654;10.014;2023-04-01T00:16:01;10.55;;;5.97;;
46507;SDS011;32223;53.654;10.014;2023-04-01T00:18:29;9.85;;;5.65;;
46507;SDS011;32223;53.654;10.014;2023-04-01T00:20:55;10.48;;;5.70;;
46507;SDS011;32223;53.654;10.014;2023-04-01T00:23:21;11.40;;;6.28;;
46507;SDS011;32223;53.654;10.014;2023-04-01T00:25:47;10.25;;;6.13;;
46507;SDS011;32223;53.654;10.014;2023-04-01T00:28:17;12.63;;;5.22;;
46507;SDS011;32223;53.654;10.014;2023-04-01T00:30:44;13.45;;;6.30;;
46507;SDS011;32223;53.654;10.014;2023-04-01T00:33:10;11.32;;;5.85;;
46507;SDS011;32223;53.654;10.014;2023-04-01T00:35:36;13.13;;;5.30;;
46507;SDS011;32223;53.654;10.014;2023-04-01T00:38:01;14.43;;;5.72;;
46507;SDS011;32223;53.654;10.014;2023-04-01T00:42:58;9.55;;;5.32;;
46507;SDS011;32223;53.654;10.014;2023-04-01T00:45:32;11.05;;;5.95;;
46507;SDS011;32223;53.654;10.014;2023-04-01T00:48:05;12.23;;;6.00;;
46507;SDS011;32223;53.654;10.014;2023-04-01T00:50:35;15.23;;;6.47;;
46507;SDS011;32223;53.654;10.014;2023-04-01T00:53:03;11.32;;;6.05;;
46507;SDS011;32223;53.654;10.014;2023-04-01T00:55:32;13.75;;;6.55;;
46507;SDS011;32223;53.654;10.014;2023-04-01T00:58:00;10.38;;;5.53;;
46507;SDS011;32223;53.654;10.014;2023-04-01T01:00:28;13.57;;;6.78;;
46507;SDS011;32223;53.654;10.014;2023-04-01T01:02:54;11.00;;;5.93;;
46507;SDS011;32223;53.654;10.014;2023-04-01T01:05:21;12.23;;;6.45;;
46507;SDS011;32223;53.654;10.014;2023-04-01T01:08:01;15.55;;;6.82;;
46507;SDS011;32223;53.654;10.014;2023-04-01T01:10:46;12.02;;;5.50;;
46507;SDS011;32223;53.654;10.014;2023-04-01T01:13:34;14.13;;;5.57;;
46507;SDS011;32223;53.654;10.014;2023-04-01T01:16:10;12.98;;;5.85;;
46507;SDS011;32223;53.654;10.014;2023-04-01T01:19:12;10.63;;;6.75;;
46507;SDS011;32223;53.654;10.014;2023-04-01T01:25:10;9.15;;;6.05;;
46507;SDS011;32223;53.654;10.014;2023-04-01T01:28:01;10.82;;;5.75;;
46507;SDS011;32223;53.654;10.014;2023-04-01T01:33:42;13.98;;;5.28;;
46507;SDS011;32223;53.654;10.014;2023-04-01T01:36:16;12.98;;;5.88;;
46507;SDS011;32223;53.654;10.014;2023-04-01T01:38:43;14.00;;;6.68;;
46507;SDS011;32223;53.654;10.014;2023-04-01T01:41:11;13.93;;;6.13;;
46507;SDS011;32223;53.654;10.014;2023-04-01T01:43:39;8.98;;;5.35;;
46507;SDS011;32223;53.654;10.014;2023-04-01T01:46:10;10.35;;;5.82;;
46507;SDS011;32223;53.654;10.014;2023-04-01T01:48:38;9.98;;;6.18;;
46507;SDS011;32223;53.654;10.014;2023-04-01T01:51:06;14.93;;;5.78;;
46507;SDS011;32223;53.654;10.014;2023-04-01T01:53:32;10.13;;;5.65;;
46507;SDS011;32223;53.654;10.014;2023-04-01T01:55:58;10.93;;;6.38;;
46507;SDS011;32223;53.654;10.014;2023-04-01T01:58:28;12.90;;;6.57;;
46507;SDS011;32223;53.654;10.014;2023-04-01T02:00:55;11.35;;;6.47;;
46507;SDS011;32223;53.654;10.014;2023-04-01T02:03:27;12.40;;;6.55;;
46507;SDS011;32223;53.654;10.014;2023-04-01T02:05:57;13.10;;;6.28;;
46507;SDS011;32223;53.654;10.014;2023-04-01T02:08:45;14.85;;;6.53;;
46507;SDS011;32223;53.654;10.014;2023-04-01T02:11:17;13.90;;;7.65;;
46507;SDS011;32223;53.654;10.014;2023-04-01T02:13:56;12.90;;;6.20;;
46507;SDS011;32223;53.654;10.014;2023-04-01T02:16:38;12.80;;;6.78;;
46507;SDS011;32223;53.654;10.014;2023-04-01T02:19:10;13.95;;;6.35;;
46507;SDS011;32223;53.654;10.014;2023-04-01T02:21:38;19.20;;;6.70;;
46507;SDS011;32223;53.654;10.014;2023-04-01T02:24:06;13.30;;;6.60;;
46507;SDS011;32223;53.654;10.014;2023-04-01T02:26:37;10.07;;;6.50;;
46507;SDS011;32223;53.654;10.014;2023-04-01T02:29:05;13.45;;;5.68;;
46507;SDS011;32223;53.654;10.014;2023-04-01T02:31:33;11.13;;;6.07;;
46507;SDS011;32223;53.654;10.014;2023-04-01T02:33:59;15.75;;;6.90;;
46507;SDS011;32223;53.654;10.014;2023-04-01T02:36:26;13.10;;;6.63;;
46507;SDS011;32223;53.654;10.014;2023-04-01T02:38:51;11.07;;;5.90;;
46507;SDS011;32223;53.654;10.014;2023-04-01T02:41:19;10.57;;;6.82;;
46507;SDS011;32223;53.654;10.014;2023-04-01T02:43:46;13.27;;;6.35;;
46507;SDS011;32223;53.654;10.014;2023-04-01T02:46:11;14.30;;;6.85;;
46507;SDS011;32223;53.654;10.014;2023-04-01T02:48:37;19.48;;;6.78;;
46507;SDS011;32223;53.654;10.014;2023-04-01T02:51:02;16.98;;;6.07;;
46507;SDS011;32223;53.654;10.014;2023-04-01T02:53:28;14.38;;;5.55;;
46507;SDS011;32223;53.654;10.014;2023-04-01T02:55:54;12.13;;;6.07;;
46507;SDS011;32223;53.654;10.014;2023-04-01T02:58:20;11.00;;;6.07;;
46507;SDS011;32223;53.654;10.014;2023-04-01T03:00:46;10.32;;;5.80;;
46507;SDS011;32223;53.654;10.014;2023-04-01T03:03:12;14.05;;;6.43;;
46507;SDS011;32223;53.654;10.014;2023-04-01T03:05:38;10.75;;;5.57;;
46507;SDS011;32223;53.654;10.014;2023-04-01T03:08:04;12.80;;;5.70;;
46507;SDS011;32223;53.654;10.014;2023-04-01T03:10:31;10.55;;;5.03;;
46507;SDS011;32223;53.654;10.014;2023-04-01T03:12:56;11.50;;;5.68;;
46507;SDS011;32223;53.654;10.014;2023-04-01T03:15:22;10.10;;;5.20;;
46507;SDS011;32223;53.654;10.014;2023-04-01T03:17:48;12.98;;;5.95;;
46507;SDS011;32223;53.654;10.014;2023-04-01T03:20:13;15.30;;;5.80;;
46507;SDS011;32223;53.654;10.014;2023-04-01T03:22:39;14.45;;;6.40;;
46507;SDS011;32223;53.654;10.014;2023-04-01T03:25:05;10.68;;;5.82;;
46507;SDS011;32223;53.654;10.014;2023-04-01T03:27:33;11.75;;;5.80;;
46507;SDS011;32223;53.654;10.014;2023-04-01T03:30:00;10.40;;;5.47;;
46507;SDS011;32223;53.654;10.014;2023-04-01T03:32:26;15.02;;;5.90;;
46507;SDS011;32223;53.654;10.014;2023-04-01T03:34:52;14.52;;;6.97;;
46507;SDS011;32223;53.654;10.014;2023-04-01T03:37:18;13.48;;;6.10;;
46507;SDS011;32223;53.654;10.014;2023-04-01T03:39:43;14.18;;;6.25;;
46507;SDS011;32223;53.654;10.014;2023-04-01T03:42:10;12.45;;;6.88;;
46507;SDS011;32223;53.654;10.014;2023-04-01T03:44:36;11.93;;;6.78;;
46507;SDS011;32223;53.654;10.014;2023-04-01T03:47:01;14.43;;;7.15;;
46507;SDS011;32223;53.654;10.014;2023-04-01T03:49:28;14.10;;;7.00;;
46507;SDS011;32223;53.654;10.014;2023-04-01T03:51:54;13.80;;;7.03;;
46507;SDS011;32223;53.654;10.014;2023-04-01T03:54:19;10.90;;;7.10;;
46507;SDS011;32223;53.654;10.014;2023-04-01T03:56:45;14.07;;;7.30;;
46507;SDS011;32223;53.654;10.014;2023-04-01T03:59:12;14.50;;;7.22;;
46507;SDS011;32223;53.654;10.014;2023-04-01T04:01:38;13.82;;;7.28;;
46507;SDS011;32223;53.654;10.014;2023-04-01T04:04:03;12.23;;;7.32;;
46507;SDS011;32223;53.654;10.014;2023-04-01T04:06:30;13.30;;;7.90;;
46507;SDS011;32223;53.654;10.014;2023-04-01T04:08:55;11.23;;;7.25;;
46507;SDS011;32223;53.654;10.014;2023-04-01T04:11:22;14.20;;;7.40;;
46507;SDS011;32223;53.654;10.014;2023-04-01T04:13:48;16.67;;;7.93;;
46507;SDS011;32223;53.654;10.014;2023-04-01T04:16:14;13.00;;;7.70;;
46507;SDS011;32223;53.654;10.014;2023-04-01T04:18:40;12.02;;;7.40;;
46507;SDS011;32223;53.654;10.014;2023-04-01T04:21:06;15.93;;;8.23;;
46507;SDS011;32223;53.654;10.014;2023-04-01T04:23:32;13.98;;;7.80;;
46507;SDS011;32223;53.654;10.014;2023-04-01T04:28:26;12.00;;;7.00;;
46507;SDS011;32223;53.654;10.014;2023-04-01T04:30:53;12.10;;;6.88;;
46507;SDS011;32223;53.654;10.014;2023-04-01T04:33:19;14.70;;;8.52;;
46507;SDS011;32223;53.654;10.014;2023-04-01T04:35:45;11.80;;;6.90;;
46507;SDS011;32223;53.654;10.014;2023-04-01T04:38:10;9.60;;;5.20;;
46507;SDS011;32223;53.654;10.014;2023-04-01T04:40:37;6.68;;;4.30;;
46507;SDS011;32223;53.654;10.014;2023-04-01T04:43:03;5.57;;;3.22;;
46507;SDS011;32223;53.654;10.014;2023-04-01T04:45:29;3.78;;;2.08;;
46507;SDS011;32223;53.654;10.014;2023-04-01T04:47:55;3.50;;;1.90;;
46507;SDS011;32223;53.654;10.014;2023-04-01T04:50:21;2.33;;;1.42;;
46507;SDS011;32223;53.654;10.014;2023-04-01T04:52:47;2.80;;;1.50;;
46507;SDS011;32223;53.654;10.014;2023-04-01T04:55:13;2.30;;;1.30;;
46507;SDS011;32223;53.654;10.014;2023-04-01T04:57:40;2.67;;;1.17;;
46507;SDS011;32223;53.654;10.014;2023-04-01T05:00:06;2.08;;;1.10;;
46507;SDS011;32223;53.654;10.014;2023-04-01T05:02:32;2.97;;;1.17;;
46507;SDS011;32223;53.654;10.014;2023-04-01T05:04:58;3.00;;;1.33;;
46507;SDS011;32223;53.654;10.014;2023-04-01T05:07:23;2.30;;;1.40;;
46507;SDS011;32223;53.654;10.014;2023-04-01T05:09:49;2.78;;;1.45;;
46507;SDS011;32223;53.654;10.014;2023-04-01T05:12:15;3.17;;;1.58;;
46507;SDS011;32223;53.654;10.014;2023-04-01T05:14:41;2.15;;;1.30;;
46507;SDS011;32223;53.654;10.014;2023-04-01T05:17:10;3.50;;;1.38;;
46507;SDS011;32223;53.654;10.014;2023-04-01T05:19:36;1.98;;;1.40;;
46507;SDS011;32223;53.654;10.014;2023-04-01T05:22:02;3.20;;;1.80;;
46507;SDS011;32223;53.654;10.014;2023-04-01T05:24:28;2.47;;;1.65;;
46507;SDS011;32223;53.654;10.014;2023-04-01T05:26:54;2.20;;;1.40;;
46507;SDS011;32223;53.654;10.014;2023-04-01T05:29:21;3.92;;;1.30;;
46507;SDS011;32223;53.654;10.014;2023-04-01T05:31:46;2.40;;;1.23;;
46507;SDS011;32223;53.654;10.014;2023-04-01T05:34:12;3.80;;;1.45;;
46507;SDS011;32223;53.654;10.014;2023-04-01T05:36:38;3.38;;;1.67;;
46507;SDS011;32223;53.654;10.014;2023-04-01T05:39:05;2.40;;;1.42;;
46507;SDS011;32223;53.654;10.014;2023-04-01T05:41:30;2.75;;;1.70;;
46507;SDS011;32223;53.654;10.014;2023-04-01T05:43:56;3.67;;;1.38;;
46507;SDS011;32223;53.654;10.014;2023-04-01T05:46:21;2.70;;;1.75;;
46507;SDS011;32223;53.654;10.014;2023-04-01T05:48:47;2.28;;;1.20;;
46507;SDS011;32223;53.654;10.014;2023-04-01T05:51:13;4.45;;;1.48;;
46507;SDS011;32223;53.654;10.014;2023-04-01T05:53:39;2.88;;;1.95;;
46507;SDS011;32223;53.654;10.014;2023-04-01T05:56:05;2.00;;;1.20;;
46507;SDS011;32223;53.654;10.014;2023-04-01T05:58:33;1.88;;;1.30;;
46507;SDS011;32223;53.654;10.014;2023-04-01T06:01:06;2.20;;;1.02;;
46507;SDS011;32223;53.654;10.014;2023-04-01T06:03:34;2.00;;;1.00;;
46507;SDS011;32223;53.654;10.014;2023-04-01T06:06:00;1.80;;;1.02;;
46507;SDS011;32223;53.654;10.014;2023-04-01T06:08:26;1.90;;;0.95;;
46507;SDS011;32223;53.654;10.014;2023-04-01T06:13:37;1.70;;;1.00;;
46507;SDS011;32223;53.654;10.014;2023-04-01T06:24:50;1.92;;;1.40;;
46507;SDS011;32223;53.654;10.014;2023-04-01T06:33:23;2.05;;;1.10;;
46507;SDS011;32223;53.654;10.014;2023-04-01T06:52:02;2.10;;;0.82;;
46507;SDS011;32223;53.654;10.014;2023-04-01T06:57:52;1.55;;;0.90;;
46507;SDS011;32223;53.654;10.014;2023-04-01T07:00:29;2.90;;;0.75;;
46507;SDS011;32223;53.654;10.014;2023-04-01T07:05:33;1.35;;;0.60;;
46507;SDS011;32223;53.654;10.014;2023-04-01T07:08:01;1.70;;;0.90;;
46507;SDS011;32223;53.654;10.014;2023-04-01T07:10:34;1.40;;;0.80;;
46507;SDS011;32223;53.654;10.014;2023-04-01T07:13:36;1.20;;;0.52;;
46507;SDS011;32223;53.654;10.014;2023-04-01T07:18:50;2.33;;;0.90;;
46507;SDS011;32223;53.654;10.014;2023-04-01T07:21:25;1.92;;;1.00;;
46507;SDS011;32223;53.654;10.014;2023-04-01T07:23:54;2.03;;;0.75;;
46507;SDS011;32223;53.654;10.014;2023-04-01T07:26:26;2.33;;;1.42;;
46507;SDS011;32223;53.654;10.014;2023-04-01T07:28:52;2.60;;;0.98;;
46507;SDS011;32223;53.654;10.014;2023-04-01T07:34:08;1.42;;;0.77;;
46507;SDS011;32223;53.654;10.014;2023-04-01T07:36:54;2.10;;;1.40;;
46507;SDS011;32223;53.654;10.014;2023-04-01T07:39:34;2.88;;;1.10;;
46507;SDS011;32223;53.654;10.014;2023-04-01T07:50:41;2.10;;;0.70;;
46507;SDS011;32223;53.654;10.014;2023-04-01T07:53:31;1.33;;;0.73;;
46507;SDS011;32223;53.654;10.014;2023-04-01T07:56:21;1.23;;;0.85;;
46507;SDS011;32223;53.654;10.014;2023-04-01T08:01:44;3.55;;;1.20;;
46507;SDS011;32223;53.654;10.014;2023-04-01T08:07:02;1.73;;;0.88;;
46507;SDS011;32223;53.654;10.014;2023-04-01T08:12:48;1.95;;;1.08;;
46507;SDS011;32223;53.654;10.014;2023-04-01T08:15:27;2.30;;;0.90;;
46507;SDS011;32223;53.654;10.014;2023-04-01T08:18:05;1.60;;;0.85;;
46507;SDS011;32223;53.654;10.014;2023-04-01T08:21:17;1.50;;;0.77;;
46507;SDS011;32223;53.654;10.014;2023-04-01T08:24:01;2.15;;;1.05;;
46507;SDS011;32223;53.654;10.014;2023-04-01T08:26:54;1.90;;;1.00;;
46507;SDS011;32223;53.654;10.014;2023-04-01T08:29:36;2.80;;;1.20;;
46507;SDS011;32223;53.654;10.014;2023-04-01T08:34:44;1.70;;;1.00;;
46507;SDS011;32223;53.654;10.014;2023-04-01T08:37:49;2.67;;;0.90;;
46507;SDS011;32223;53.654;10.014;2023-04-01T08:43:04;1.50;;;0.73;;
46507;SDS011;32223;53.654;10.014;2023-04-01T08:50:55;2.53;;;0.75;;
46507;SDS011;32223;53.654;10.014;2023-04-01T08:53:43;1.75;;;1.02;;
46507;SDS011;32223;53.654;10.014;2023-04-01T08:56:41;1.67;;;0.73;;
46507;SDS011;32223;53.654;10.014;2023-04-01T09:07:25;1.65;;;0.85;;
46507;SDS011;32223;53.654;10.014;2023-04-01T09:26:34;2.05;;;0.70;;
46507;SDS011;32223;53.654;10.014;2023-04-01T09:40:18;2.35;;;0.80;;
46507;SDS011;32223;53.654;10.014;2023-04-01T09:45:56;0.88;;;0.50;;
46507;SDS011;32223;53.654;10.014;2023-04-01T09:54:01;2.97;;;0.60;;
46507;SDS011;32223;53.654;10.014;2023-04-01T09:59:57;1.77;;;0.57;;
46507;SDS011;32223;53.654;10.014;2023-04-01T10:08:43;2.30;;;0.90;;
46507;SDS011;32223;53.654;10.014;2023-04-01T10:11:41;2.03;;;0.70;;
46507;SDS011;32223;53.654;10.014;2023-04-01T10:37:31;0.28;;;0.20;;
46507;SDS011;32223;53.654;10.014;2023-04-01T10:46:08;1.20;;;0.70;;
46507;SDS011;32223;53.654;10.014;2023-04-01T10:56:57;1.40;;;0.63;;
46507;SDS011;32223;53.654;10.014;2023-04-01T11:10:57;1.95;;;0.77;;
46507;SDS011;32223;53.654;10.014;2023-04-01T11:19:20;1.95;;;1.10;;
46507;SDS011;32223;53.654;10.014;2023-04-01T11:38:56;3.25;;;2.03;;
46507;SDS011;32223;53.654;10.014;2023-04-01T11:49:36;6.38;;;1.90;;
46507;SDS011;32223;53.654;10.014;2023-04-01T11:54:53;5.60;;;1.92;;
46507;SDS011;32223;53.654;10.014;2023-04-01T12:09:01;3.85;;;2.58;;
46507;SDS011;32223;53.654;10.014;2023-04-01T12:12:03;3.95;;;2.20;;
46507;SDS011;32223;53.654;10.014;2023-04-01T12:37:06;7.20;;;3.13;;
46507;SDS011;32223;53.654;10.014;2023-04-01T12:48:03;6.20;;;3.03;;
46507;SDS011;32223;53.654;10.014;2023-04-01T12:53:44;6.75;;;3.25;;
46507;SDS011;32223;53.654;10.014;2023-04-01T13:02:33;5.15;;;3.17;;
46507;SDS011;32223;53.654;10.014;2023-04-01T13:16:27;5.30;;;3.17;;
46507;SDS011;32223;53.654;10.014;2023-04-01T13:42:19;4.90;;;2.90;;
46507;SDS011;32223;53.654;10.014;2023-04-01T13:45:00;7.55;;;2.70;;
46507;SDS011;32223;53.654;10.014;2023-04-01T13:53:53;6.85;;;3.67;;
46507;SDS011;32223;53.654;10.014;2023-04-01T14:10:31;5.85;;;3.30;;
46507;SDS011;32223;53.654;10.014;2023-04-01T14:13:23;6.38;;;2.88;;
46507;SDS011;32223;53.654;10.014;2023-04-01T14:16:14;4.10;;;2.45;;
46507;SDS011;32223;53.654;10.014;2023-04-01T14:19:22;6.80;;;3.47;;
46507;SDS011;32223;53.654;10.014;2023-04-01T14:24:58;8.45;;;3.33;;
46507;SDS011;32223;53.654;10.014;2023-04-01T14:41:58;7.40;;;2.88;;
46507;SDS011;32223;53.654;10.014;2023-04-01T14:44:38;7.57;;;3.40;;
46507;SDS011;32223;53.654;10.014;2023-04-01T14:47:56;4.53;;;2.83;;
46507;SDS011;32223;53.654;10.014;2023-04-01T14:50:45;6.30;;;3.67;;
46507;SDS011;32223;53.654;10.014;2023-04-01T14:53:31;7.28;;;3.25;;
46507;SDS011;32223;53.654;10.014;2023-04-01T14:56:07;8.23;;;2.50;;
46507;SDS011;32223;53.654;10.014;2023-04-01T14:58:46;6.60;;;2.72;;
46507;SDS011;32223;53.654;10.014;2023-04-01T15:04:03;5.03;;;2.60;;
46507;SDS011;32223;53.654;10.014;2023-04-01T15:06:55;8.48;;;2.95;;
46507;SDS011;32223;53.654;10.014;2023-04-01T15:09:29;7.93;;;3.15;;
46507;SDS011;32223;53.654;10.014;2023-04-01T15:17:22;9.32;;;3.38;;
46507;SDS011;32223;53.654;10.014;2023-04-01T15:22:53;9.75;;;3.35;;
46507;SDS011;32223;53.654;10.014;2023-04-01T15:36:49;7.10;;;3.38;;
46507;SDS011;32223;53.654;10.014;2023-04-01T15:44:50;4.97;;;2.97;;
46507;SDS011;32223;53.654;10.014;2023-04-01T15:58:47;5.63;;;3.22;;
46507;SDS011;32223;53.654;10.014;2023-04-01T16:08:50;6.53;;;3.72;;
46507;SDS011;32223;53.654;10.014;2023-04-01T16:11:41;8.10;;;3.80;;
46507;SDS011;32223;53.654;10.014;2023-04-01T16:23:10;7.70;;;4.43;;
46507;SDS011;32223;53.654;10.014;2023-04-01T16:25:57;6.50;;;3.28;;
46507;SDS011;32223;53.654;10.014;2023-04-01T16:29:19;5.75;;;3.22;;
46507;SDS011;32223;53.654;10.014;2023-04-01T16:40:16;8.10;;;3.78;;
46507;SDS011;32223;53.654;10.014;2023-04-01T16:46:08;7.65;;;2.83;;
46507;SDS011;32223;53.654;10.014;2023-04-01T16:48:56;8.70;;;3.42;;
46507;SDS011;32223;53.654;10.014;2023-04-01T16:59:35;6.65;;;3.47;;
46507;SDS011;32223;53.654;10.014;2023-04-01T17:15:35;9.50;;;3.08;;
46507;SDS011;32223;53.654;10.014;2023-04-01T17:18:06;6.93;;;2.60;;
46507;SDS011;32223;53.654;10.014;2023-04-01T17:21:16;5.30;;;2.15;;
46507;SDS011;32223;53.654;10.014;2023-04-01T17:23:51;6.38;;;2.75;;
46507;SDS011;32223;53.654;10.014;2023-04-01T17:29:17;6.70;;;2.67;;
46507;SDS011;32223;53.654;10.014;2023-04-01T17:32:03;8.43;;;3.38;;
46507;SDS011;32223;53.654;10.014;2023-04-01T17:34:40;6.38;;;2.90;;
46507;SDS011;32223;53.654;10.014;2023-04-01T17:45:32;6.93;;;2.75;;
46507;SDS011;32223;53.654;10.014;2023-04-01T18:16:24;4.22;;;2.45;;
46507;SDS011;32223;53.654;10.014;2023-04-01T18:18:59;3.95;;;1.83;;
46507;SDS011;32223;53.654;10.014;2023-04-01T18:21:53;5.55;;;2.45;;
46507;SDS011;32223;53.654;10.014;2023-04-01T18:27:36;7.03;;;2.15;;
46507;SDS011;32223;53.654;10.014;2023-04-01T18:42:57;5.15;;;2.22;;
46507;SDS011;32223;53.654;10.014;2023-04-01T18:49:06;3.75;;;2.42;;
46507;SDS011;32223;53.654;10.014;2023-04-01T18:51:53;4.78;;;2.55;;
46507;SDS011;32223;53.654;10.014;2023-04-01T18:57:02;3.92;;;2.33;;
46507;SDS011;32223;53.654;10.014;2023-04-01T18:59:39;5.18;;;2.38;;
46507;SDS011;32223;53.654;10.014;2023-04-01T19:02:31;5.57;;;2.20;;
46507;SDS011;32223;53.654;10.014;2023-04-01T19:05:19;5.90;;;2.55;;
46507;SDS011;32223;53.654;10.014;2023-04-01T19:18:55;5.70;;;2.08;;
46507;SDS011;32223;53.654;10.014;2023-04-01T19:21:37;4.60;;;1.80;;
46507;SDS011;32223;53.654;10.014;2023-04-01T19:29:44;5.05;;;2.67;;
46507;SDS011;32223;53.654;10.014;2023-04-01T19:35:42;3.92;;;1.70;;
46507;SDS011;32223;53.654;10.014;2023-04-01T19:41:23;4.70;;;2.13;;
46507;SDS011;32223;53.654;10.014;2023-04-01T19:52:23;6.35;;;1.90;;
46507;SDS011;32223;53.654;10.014;2023-04-01T20:00:37;7.30;;;1.77;;
46507;SDS011;32223;53.654;10.014;2023-04-01T20:03:16;8.23;;;2.95;;
46507;SDS011;32223;53.654;10.014;2023-04-01T20:11:38;3.85;;;1.70;;
46507;SDS011;32223;53.654;10.014;2023-04-01T20:14:36;7.53;;;2.30;;
46507;SDS011;32223;53.654;10.014;2023-04-01T20:23:21;6.88;;;2.60;;
46507;SDS011;32223;53.654;10.014;2023-04-01T20:25:43;7.70;;;2.27;;
46507;SDS011;32223;53.654;10.014;2023-04-01T20:28:19;5.00;;;2.10;;
46507;SDS011;32223;53.654;10.014;2023-04-01T20:31:11;4.30;;;2.00;;
46507;SDS011;32223;53.654;10.014;2023-04-01T20:47:24;4.68;;;2.80;;
46507;SDS011;32223;53.654;10.014;2023-04-01T21:28:25;5.72;;;2.10;;
46507;SDS011;32223;53.654;10.014;2023-04-01T21:51:03;6.57;;;1.75;;
46507;SDS011;32223;53.654;10.014;2023-04-01T22:04:41;4.65;;;1.60;;
46507;SDS011;32223;53.654;10.014;2023-04-01T22:07:32;8.90;;;1.65;;
46507;SDS011;32223;53.654;10.014;2023-04-01T22:21:24;3.30;;;1.42;;
46507;SDS011;32223;53.654;10.014;2023-04-01T22:24:03;7.40;;;2.58;;
46507;SDS011;32223;53.654;10.014;2023-04-01T22:26:50;5.65;;;1.58;;
46507;SDS011;32223;53.654;10.014;2023-04-01T22:32:05;5.47;;;1.10;;
46507;SDS011;32223;53.654;10.014;2023-04-01T22:34:53;5.45;;;1.20;;
46507;SDS011;32223;53.654;10.014;2023-04-01T22:37:34;4.07;;;1.58;;
46507;SDS011;32223;53.654;10.014;2023-04-01T22:42:50;6.43;;;1.40;;
46507;SDS011;32223;53.654;10.014;2023-04-01T22:48:11;6.53;;;1.30;;
46507;SDS011;32223;53.654;10.014;2023-04-01T22:53:38;4.15;;;1.42;;
46507;SDS011;32223;53.654;10.014;2023-04-01T22:56:28;4.90;;;1.50;;
46507;SDS011;32223;53.654;10.014;2023-04-01T23:01:30;4.63;;;1.13;;
46507;SDS011;32223;53.654;10.014;2023-04-01T23:04:03;3.15;;;1.30;;
46507;SDS011;32223;53.654;10.014;2023-04-01T23:06:33;3.83;;;1.00;;
46507;SDS011;32223;53.654;10.014;2023-04-01T23:09:04;3.17;;;1.20;;
46507;SDS011;32223;53.654;10.014;2023-04-01T23:16:46;3.15;;;1.20;;
46507;SDS011;32223;53.654;10.014;2023-04-01T23:19:20;4.43;;;1.17;;
46507;SDS011;32223;53.654;10.014;2023-04-01T23:24:45;6.03;;;1.15;;
46507;SDS011;32223;53.654;10.014;2023-04-01T23:27:23;3.40;;;0.90;;
46507;SDS011;32223;53.654;10.014;2023-04-01T23:29:50;6.97;;;1.63;;
46507;SDS011;32223;53.654;10.014;2023-04-01T23:32:22;1.85;;;0.73;;
46507;SDS011;32223;53.654;10.014;2023-04-01T23:34:51;5.72;;;1.33;;
46507;SDS011;32223;53.654;10.014;2023-04-01T23:37:20;3.28;;;1.40;;
46507;SDS011;32223;53.654;10.014;2023-04-01T23:39:53;5.88;;;1.20;;
46507;SDS011;32223;53.654;10.014;2023-04-01T23:42:26;3.70;;;1.08;;
46507;SDS011;32223;53.654;10.014;2023-04-01T23:44:56;2.90;;;1.60;;
46507;SDS011;32223;53.654;10.014;2023-04-01T23:47:24;4.85;;;0.90;;
46507;SDS011;32223;53.654;10.014;2023-04-01T23:49:59;10.57;;;1.42;;
46507;SDS011;32223;53.654;10.014;2023-04-01T23:52:35;1.73;;;0.80;;
46507;SDS011;32223;53.654;10.014;2023-04-01T23:55:18;3.13;;;0.73;;
